sensor_id;sensor_type;location;lat;lon;timestamp;P1;durP1;ratioP1;P2;durP2;ratioP2
73276;SDS011;61501;43.316;5.372;2024-03-02T00:02:24;6.32;;;3.83;;
73276;SDS011;61501;43.316;5.372;2024-03-02T00:04:50;6.22;;;3.85;;
73276;SDS011;61501;43.316;5.372;2024-03-02T00:07:16;5.82;;;3.72;;
73276;SDS011;61501;43.316;5.372;2024-03-02T00:09:42;6.30;;;3.70;;
73276;SDS011;61501;43.316;5.372;2024-03-02T00:12:10;9.77;;;5.65;;
73276;SDS011;61501;43.316;5.372;2024-03-02T00:14:40;8.77;;;6.03;;
73276;SDS011;61501;43.316;5.372;2024-03-02T00:17:08;8.05;;;5.65;;
73276;SDS011;61501;43.316;5.372;2024-03-02T00:19:46;5.07;;;3.63;;
73276;SDS011;61501;43.316;5.372;2024-03-02T00:22:11;6.18;;;3.65;;
73276;SDS011;61501;43.316;5.372;2024-03-02T00:24:37;5.72;;;3.55;;
73276;SDS011;61501;43.316;5.372;2024-03-02T00:27:04;6.47;;;3.10;;
73276;SDS011;61501;43.316;5.372;2024-03-02T00:29:32;3.90;;;2.63;;
73276;SDS011;61501;43.316;5.372;2024-03-02T00:31:59;7.28;;;2.75;;
73276;SDS011;61501;43.316;5.372;2024-03-02T00:34:26;7.80;;;3.70;;
73276;SDS011;61501;43.316;5.372;2024-03-02T00:36:52;5.50;;;3.30;;
73276;SDS011;61501;43.316;5.372;2024-03-02T00:39:17;5.55;;;3.22;;
73276;SDS011;61501;43.316;5.372;2024-03-02T00:41:43;5.50;;;3.10;;
73276;SDS011;61501;43.316;5.372;2024-03-02T00:44:11;7.82;;;5.20;;
73276;SDS011;61501;43.316;5.372;2024-03-02T00:46:38;7.70;;;5.15;;
73276;SDS011;61501;43.316;5.372;2024-03-02T00:49:26;7.60;;;5.03;;
73276;SDS011;61501;43.316;5.372;2024-03-02T00:51:52;7.45;;;5.15;;
73276;SDS011;61501;43.316;5.372;2024-03-02T00:54:22;10.55;;;4.93;;
73276;SDS011;61501;43.316;5.372;2024-03-02T00:57:10;7.97;;;6.20;;
73276;SDS011;61501;43.316;5.372;2024-03-02T00:59:37;10.18;;;7.05;;
73276;SDS011;61501;43.316;5.372;2024-03-02T01:02:03;9.25;;;5.15;;
73276;SDS011;61501;43.316;5.372;2024-03-02T01:04:29;8.15;;;3.75;;
73276;SDS011;61501;43.316;5.372;2024-03-02T01:06:54;6.40;;;3.70;;
73276;SDS011;61501;43.316;5.372;2024-03-02T01:09:20;5.13;;;3.22;;
73276;SDS011;61501;43.316;5.372;2024-03-02T01:11:46;5.50;;;3.28;;
73276;SDS011;61501;43.316;5.372;2024-03-02T01:14:11;5.30;;;2.92;;
73276;SDS011;61501;43.316;5.372;2024-03-02T01:16:37;5.25;;;2.75;;
73276;SDS011;61501;43.316;5.372;2024-03-02T01:19:02;5.45;;;3.58;;
73276;SDS011;61501;43.316;5.372;2024-03-02T01:21:28;6.30;;;3.40;;
73276;SDS011;61501;43.316;5.372;2024-03-02T01:23:54;7.20;;;2.90;;
73276;SDS011;61501;43.316;5.372;2024-03-02T01:26:20;7.07;;;4.80;;
73276;SDS011;61501;43.316;5.372;2024-03-02T01:28:45;7.03;;;5.05;;
73276;SDS011;61501;43.316;5.372;2024-03-02T01:31:11;6.97;;;4.60;;
73276;SDS011;61501;43.316;5.372;2024-03-02T01:33:36;5.55;;;4.00;;
73276;SDS011;61501;43.316;5.372;2024-03-02T01:36:02;6.50;;;3.78;;
73276;SDS011;61501;43.316;5.372;2024-03-02T01:38:28;6.43;;;3.78;;
73276;SDS011;61501;43.316;5.372;2024-03-02T01:40:53;5.97;;;3.65;;
73276;SDS011;61501;43.316;5.372;2024-03-02T01:43:23;6.30;;;3.30;;
73276;SDS011;61501;43.316;5.372;2024-03-02T01:45:49;6.72;;;3.50;;
73276;SDS011;61501;43.316;5.372;2024-03-02T01:48:14;5.57;;;3.38;;
73276;SDS011;61501;43.316;5.372;2024-03-02T01:50:40;6.03;;;3.30;;
73276;SDS011;61501;43.316;5.372;2024-03-02T01:53:06;6.50;;;3.05;;
73276;SDS011;61501;43.316;5.372;2024-03-02T01:55:33;6.82;;;3.88;;
73276;SDS011;61501;43.316;5.372;2024-03-02T01:57:59;8.10;;;3.97;;
73276;SDS011;61501;43.316;5.372;2024-03-02T02:00:25;7.28;;;3.80;;
73276;SDS011;61501;43.316;5.372;2024-03-02T02:02:51;7.80;;;4.00;;
73276;SDS011;61501;43.316;5.372;2024-03-02T02:05:17;7.65;;;3.03;;
73276;SDS011;61501;43.316;5.372;2024-03-02T02:07:43;7.90;;;3.80;;
73276;SDS011;61501;43.316;5.372;2024-03-02T02:10:12;7.80;;;3.58;;
73276;SDS011;61501;43.316;5.372;2024-03-02T02:12:38;4.85;;;2.97;;
73276;SDS011;61501;43.316;5.372;2024-03-02T02:15:25;9.68;;;3.67;;
73276;SDS011;61501;43.316;5.372;2024-03-02T02:17:50;7.43;;;3.10;;
73276;SDS011;61501;43.316;5.372;2024-03-02T02:20:16;8.88;;;3.40;;
73276;SDS011;61501;43.316;5.372;2024-03-02T02:22:52;11.63;;;3.50;;
73276;SDS011;61501;43.316;5.372;2024-03-02T02:25:28;10.13;;;3.55;;
73276;SDS011;61501;43.316;5.372;2024-03-02T02:27:54;6.35;;;3.50;;
73276;SDS011;61501;43.316;5.372;2024-03-02T02:30:25;9.27;;;4.25;;
73276;SDS011;61501;43.316;5.372;2024-03-02T02:32:54;6.55;;;4.40;;
73276;SDS011;61501;43.316;5.372;2024-03-02T02:35:20;8.98;;;4.45;;
73276;SDS011;61501;43.316;5.372;2024-03-02T02:37:52;18.13;;;12.25;;
73276;SDS011;61501;43.316;5.372;2024-03-02T02:40:20;12.55;;;8.85;;
73276;SDS011;61501;43.316;5.372;2024-03-02T02:42:46;6.78;;;4.00;;
73276;SDS011;61501;43.316;5.372;2024-03-02T02:45:12;9.98;;;4.90;;
73276;SDS011;61501;43.316;5.372;2024-03-02T02:47:39;7.85;;;3.88;;
73276;SDS011;61501;43.316;5.372;2024-03-02T02:50:08;10.48;;;4.00;;
73276;SDS011;61501;43.316;5.372;2024-03-02T02:52:35;10.45;;;3.78;;
73276;SDS011;61501;43.316;5.372;2024-03-02T02:55:03;8.68;;;3.63;;
73276;SDS011;61501;43.316;5.372;2024-03-02T02:57:30;6.80;;;3.40;;
73276;SDS011;61501;43.316;5.372;2024-03-02T03:00:00;9.30;;;4.30;;
73276;SDS011;61501;43.316;5.372;2024-03-02T03:02:48;7.93;;;3.95;;
73276;SDS011;61501;43.316;5.372;2024-03-02T03:05:14;9.15;;;3.55;;
73276;SDS011;61501;43.316;5.372;2024-03-02T03:07:40;7.68;;;3.78;;
73276;SDS011;61501;43.316;5.372;2024-03-02T03:10:07;9.63;;;4.22;;
73276;SDS011;61501;43.316;5.372;2024-03-02T03:12:33;8.50;;;4.55;;
73276;SDS011;61501;43.316;5.372;2024-03-02T03:14:59;6.63;;;3.88;;
73276;SDS011;61501;43.316;5.372;2024-03-02T03:17:25;8.73;;;3.63;;
73276;SDS011;61501;43.316;5.372;2024-03-02T03:19:52;9.13;;;4.05;;
73276;SDS011;61501;43.316;5.372;2024-03-02T03:22:18;7.70;;;3.15;;
73276;SDS011;61501;43.316;5.372;2024-03-02T03:24:43;8.48;;;3.72;;
73276;SDS011;61501;43.316;5.372;2024-03-02T03:27:09;8.63;;;3.75;;
73276;SDS011;61501;43.316;5.372;2024-03-02T03:29:36;8.57;;;3.42;;
73276;SDS011;61501;43.316;5.372;2024-03-02T03:32:02;8.10;;;3.42;;
73276;SDS011;61501;43.316;5.372;2024-03-02T03:34:29;8.23;;;3.38;;
73276;SDS011;61501;43.316;5.372;2024-03-02T03:36:58;7.65;;;3.38;;
73276;SDS011;61501;43.316;5.372;2024-03-02T03:39:26;11.18;;;4.05;;
73276;SDS011;61501;43.316;5.372;2024-03-02T03:41:52;7.68;;;3.42;;
73276;SDS011;61501;43.316;5.372;2024-03-02T03:44:17;8.95;;;3.72;;
73276;SDS011;61501;43.316;5.372;2024-03-02T03:46:43;10.15;;;3.35;;
73276;SDS011;61501;43.316;5.372;2024-03-02T03:49:08;9.95;;;3.63;;
73276;SDS011;61501;43.316;5.372;2024-03-02T03:51:34;9.48;;;4.18;;
73276;SDS011;61501;43.316;5.372;2024-03-02T03:54:00;8.45;;;4.00;;
73276;SDS011;61501;43.316;5.372;2024-03-02T03:56:26;11.75;;;4.05;;
73276;SDS011;61501;43.316;5.372;2024-03-02T03:58:52;10.25;;;3.65;;
73276;SDS011;61501;43.316;5.372;2024-03-02T04:01:17;9.23;;;3.60;;
73276;SDS011;61501;43.316;5.372;2024-03-02T04:03:43;9.15;;;4.05;;
73276;SDS011;61501;43.316;5.372;2024-03-02T04:06:09;7.88;;;3.70;;
73276;SDS011;61501;43.316;5.372;2024-03-02T04:08:34;11.98;;;4.28;;
73276;SDS011;61501;43.316;5.372;2024-03-02T04:11:00;8.50;;;3.72;;
73276;SDS011;61501;43.316;5.372;2024-03-02T04:13:27;8.63;;;3.97;;
73276;SDS011;61501;43.316;5.372;2024-03-02T04:15:53;12.18;;;3.80;;
73276;SDS011;61501;43.316;5.372;2024-03-02T04:18:19;9.57;;;3.80;;
73276;SDS011;61501;43.316;5.372;2024-03-02T04:20:44;10.38;;;3.55;;
73276;SDS011;61501;43.316;5.372;2024-03-02T04:23:10;11.07;;;3.70;;
73276;SDS011;61501;43.316;5.372;2024-03-02T04:25:35;11.68;;;4.50;;
73276;SDS011;61501;43.316;5.372;2024-03-02T04:28:01;11.50;;;3.80;;
73276;SDS011;61501;43.316;5.372;2024-03-02T04:30:27;9.48;;;3.70;;
73276;SDS011;61501;43.316;5.372;2024-03-02T04:32:53;9.77;;;3.30;;
73276;SDS011;61501;43.316;5.372;2024-03-02T04:35:18;10.32;;;3.83;;
73276;SDS011;61501;43.316;5.372;2024-03-02T04:37:44;9.93;;;4.10;;
73276;SDS011;61501;43.316;5.372;2024-03-02T04:40:10;8.73;;;3.78;;
73276;SDS011;61501;43.316;5.372;2024-03-02T04:42:36;9.90;;;3.78;;
73276;SDS011;61501;43.316;5.372;2024-03-02T04:45:02;10.32;;;3.55;;
73276;SDS011;61501;43.316;5.372;2024-03-02T04:47:28;10.73;;;3.45;;
73276;SDS011;61501;43.316;5.372;2024-03-02T04:49:53;9.23;;;3.65;;
73276;SDS011;61501;43.316;5.372;2024-03-02T04:52:19;9.23;;;3.55;;
73276;SDS011;61501;43.316;5.372;2024-03-02T04:54:45;13.43;;;4.68;;
73276;SDS011;61501;43.316;5.372;2024-03-02T04:57:28;9.43;;;2.95;;
73276;SDS011;61501;43.316;5.372;2024-03-02T04:59:54;8.80;;;3.38;;
73276;SDS011;61501;43.316;5.372;2024-03-02T05:02:20;9.82;;;3.40;;
73276;SDS011;61501;43.316;5.372;2024-03-02T05:04:45;10.07;;;3.38;;
73276;SDS011;61501;43.316;5.372;2024-03-02T05:07:13;11.30;;;3.75;;
73276;SDS011;61501;43.316;5.372;2024-03-02T05:09:39;11.15;;;4.07;;
73276;SDS011;61501;43.316;5.372;2024-03-02T05:12:05;10.95;;;3.70;;
73276;SDS011;61501;43.316;5.372;2024-03-02T05:14:49;9.43;;;3.60;;
73276;SDS011;61501;43.316;5.372;2024-03-02T05:17:14;15.48;;;3.58;;
73276;SDS011;61501;43.316;5.372;2024-03-02T05:19:40;9.95;;;3.15;;
73276;SDS011;61501;43.316;5.372;2024-03-02T05:22:05;14.60;;;3.78;;
73276;SDS011;61501;43.316;5.372;2024-03-02T05:24:31;11.25;;;3.47;;
73276;SDS011;61501;43.316;5.372;2024-03-02T05:26:57;8.60;;;3.67;;
73276;SDS011;61501;43.316;5.372;2024-03-02T05:29:22;7.68;;;3.20;;
73276;SDS011;61501;43.316;5.372;2024-03-02T05:31:48;7.93;;;2.90;;
73276;SDS011;61501;43.316;5.372;2024-03-02T05:34:14;11.70;;;4.13;;
73276;SDS011;61501;43.316;5.372;2024-03-02T05:36:39;6.88;;;3.13;;
73276;SDS011;61501;43.316;5.372;2024-03-02T05:39:05;10.15;;;3.35;;
73276;SDS011;61501;43.316;5.372;2024-03-02T05:41:34;8.30;;;3.08;;
73276;SDS011;61501;43.316;5.372;2024-03-02T05:44:00;8.77;;;3.20;;
73276;SDS011;61501;43.316;5.372;2024-03-02T05:46:26;7.05;;;2.70;;
73276;SDS011;61501;43.316;5.372;2024-03-02T05:48:52;10.68;;;3.70;;
73276;SDS011;61501;43.316;5.372;2024-03-02T05:51:17;7.05;;;2.88;;
73276;SDS011;61501;43.316;5.372;2024-03-02T05:53:43;7.10;;;3.05;;
73276;SDS011;61501;43.316;5.372;2024-03-02T05:56:09;6.80;;;2.88;;
73276;SDS011;61501;43.316;5.372;2024-03-02T05:58:34;8.40;;;3.15;;
73276;SDS011;61501;43.316;5.372;2024-03-02T06:01:02;5.95;;;2.85;;
73276;SDS011;61501;43.316;5.372;2024-03-02T06:03:29;8.77;;;3.30;;
73276;SDS011;61501;43.316;5.372;2024-03-02T06:05:55;7.55;;;2.83;;
73276;SDS011;61501;43.316;5.372;2024-03-02T06:08:21;7.65;;;2.97;;
73276;SDS011;61501;43.316;5.372;2024-03-02T06:10:46;9.70;;;3.28;;
73276;SDS011;61501;43.316;5.372;2024-03-02T06:13:12;10.25;;;3.53;;
73276;SDS011;61501;43.316;5.372;2024-03-02T06:15:37;7.75;;;3.17;;
73276;SDS011;61501;43.316;5.372;2024-03-02T06:18:03;7.65;;;3.13;;
73276;SDS011;61501;43.316;5.372;2024-03-02T06:20:29;7.93;;;2.95;;
73276;SDS011;61501;43.316;5.372;2024-03-02T06:22:58;7.53;;;3.30;;
73276;SDS011;61501;43.316;5.372;2024-03-02T06:25:24;9.43;;;3.65;;
73276;SDS011;61501;43.316;5.372;2024-03-02T06:27:49;10.07;;;3.50;;
73276;SDS011;61501;43.316;5.372;2024-03-02T06:30:15;9.65;;;3.30;;
73276;SDS011;61501;43.316;5.372;2024-03-02T06:32:41;10.88;;;3.80;;
73276;SDS011;61501;43.316;5.372;2024-03-02T06:35:06;7.30;;;3.35;;
73276;SDS011;61501;43.316;5.372;2024-03-02T06:37:35;8.02;;;3.28;;
73276;SDS011;61501;43.316;5.372;2024-03-02T06:40:01;6.47;;;3.20;;
73276;SDS011;61501;43.316;5.372;2024-03-02T06:42:27;9.82;;;3.42;;
73276;SDS011;61501;43.316;5.372;2024-03-02T06:45:01;9.85;;;3.50;;
73276;SDS011;61501;43.316;5.372;2024-03-02T06:47:27;10.35;;;3.88;;
73276;SDS011;61501;43.316;5.372;2024-03-02T06:49:54;10.80;;;3.50;;
73276;SDS011;61501;43.316;5.372;2024-03-02T06:52:19;7.78;;;3.28;;
73276;SDS011;61501;43.316;5.372;2024-03-02T06:54:46;8.02;;;3.30;;
73276;SDS011;61501;43.316;5.372;2024-03-02T06:57:11;7.45;;;3.20;;
73276;SDS011;61501;43.316;5.372;2024-03-02T06:59:37;7.13;;;3.30;;
73276;SDS011;61501;43.316;5.372;2024-03-02T07:02:03;10.05;;;4.15;;
73276;SDS011;61501;43.316;5.372;2024-03-02T07:04:28;9.27;;;3.33;;
73276;SDS011;61501;43.316;5.372;2024-03-02T07:06:57;8.55;;;3.75;;
73276;SDS011;61501;43.316;5.372;2024-03-02T07:09:22;9.27;;;3.38;;
73276;SDS011;61501;43.316;5.372;2024-03-02T07:11:48;8.27;;;3.10;;
73276;SDS011;61501;43.316;5.372;2024-03-02T07:14:14;9.43;;;3.30;;
73276;SDS011;61501;43.316;5.372;2024-03-02T07:16:40;9.95;;;3.40;;
73276;SDS011;61501;43.316;5.372;2024-03-02T07:19:08;9.88;;;3.50;;
73276;SDS011;61501;43.316;5.372;2024-03-02T07:21:33;8.27;;;3.00;;
73276;SDS011;61501;43.316;5.372;2024-03-02T07:23:59;7.60;;;3.33;;
73276;SDS011;61501;43.316;5.372;2024-03-02T07:26:27;10.30;;;3.33;;
73276;SDS011;61501;43.316;5.372;2024-03-02T07:28:55;7.90;;;3.22;;
73276;SDS011;61501;43.316;5.372;2024-03-02T07:31:20;7.15;;;2.83;;
73276;SDS011;61501;43.316;5.372;2024-03-02T07:33:46;9.38;;;3.17;;
73276;SDS011;61501;43.316;5.372;2024-03-02T07:36:12;9.07;;;3.72;;
73276;SDS011;61501;43.316;5.372;2024-03-02T07:38:38;9.20;;;3.40;;
73276;SDS011;61501;43.316;5.372;2024-03-02T07:41:03;9.48;;;3.17;;
73276;SDS011;61501;43.316;5.372;2024-03-02T07:43:29;7.22;;;3.08;;
73276;SDS011;61501;43.316;5.372;2024-03-02T07:45:56;11.35;;;3.83;;
73276;SDS011;61501;43.316;5.372;2024-03-02T07:48:22;8.43;;;2.80;;
73276;SDS011;61501;43.316;5.372;2024-03-02T07:50:48;7.03;;;2.85;;
73276;SDS011;61501;43.316;5.372;2024-03-02T07:53:13;10.50;;;4.03;;
73276;SDS011;61501;43.316;5.372;2024-03-02T07:55:39;11.15;;;3.10;;
73276;SDS011;61501;43.316;5.372;2024-03-02T07:58:05;7.53;;;3.05;;
73276;SDS011;61501;43.316;5.372;2024-03-02T08:00:31;7.85;;;2.90;;
73276;SDS011;61501;43.316;5.372;2024-03-02T08:02:57;10.05;;;3.40;;
73276;SDS011;61501;43.316;5.372;2024-03-02T08:05:23;7.13;;;2.78;;
73276;SDS011;61501;43.316;5.372;2024-03-02T08:07:48;8.82;;;3.45;;
73276;SDS011;61501;43.316;5.372;2024-03-02T08:10:17;11.07;;;3.47;;
73276;SDS011;61501;43.316;5.372;2024-03-02T08:12:44;10.93;;;3.97;;
73276;SDS011;61501;43.316;5.372;2024-03-02T08:15:09;8.52;;;3.80;;
73276;SDS011;61501;43.316;5.372;2024-03-02T08:17:35;8.23;;;3.63;;
73276;SDS011;61501;43.316;5.372;2024-03-02T08:20:00;7.90;;;3.20;;
73276;SDS011;61501;43.316;5.372;2024-03-02T08:22:27;8.93;;;3.97;;
73276;SDS011;61501;43.316;5.372;2024-03-02T08:24:53;8.85;;;3.35;;
73276;SDS011;61501;43.316;5.372;2024-03-02T08:27:19;8.90;;;3.38;;
73276;SDS011;61501;43.316;5.372;2024-03-02T08:29:45;10.10;;;2.85;;
73276;SDS011;61501;43.316;5.372;2024-03-02T08:32:10;9.48;;;2.80;;
73276;SDS011;61501;43.316;5.372;2024-03-02T08:34:36;14.50;;;3.40;;
73276;SDS011;61501;43.316;5.372;2024-03-02T08:37:02;10.68;;;3.20;;
73276;SDS011;61501;43.316;5.372;2024-03-02T08:39:27;11.63;;;3.10;;
73276;SDS011;61501;43.316;5.372;2024-03-02T08:41:57;12.20;;;3.47;;
73276;SDS011;61501;43.316;5.372;2024-03-02T08:44:22;11.48;;;3.00;;
73276;SDS011;61501;43.316;5.372;2024-03-02T08:46:48;12.50;;;3.45;;
73276;SDS011;61501;43.316;5.372;2024-03-02T08:49:13;13.88;;;3.55;;
73276;SDS011;61501;43.316;5.372;2024-03-02T08:51:39;11.05;;;3.47;;
73276;SDS011;61501;43.316;5.372;2024-03-02T08:54:05;11.00;;;3.35;;
73276;SDS011;61501;43.316;5.372;2024-03-02T08:56:31;9.18;;;3.15;;
73276;SDS011;61501;43.316;5.372;2024-03-02T08:58:56;11.35;;;3.28;;
73276;SDS011;61501;43.316;5.372;2024-03-02T09:01:22;11.18;;;3.13;;
73276;SDS011;61501;43.316;5.372;2024-03-02T09:03:48;10.43;;;2.90;;
73276;SDS011;61501;43.316;5.372;2024-03-02T09:06:14;9.73;;;3.50;;
73276;SDS011;61501;43.316;5.372;2024-03-02T09:08:42;10.02;;;3.03;;
73276;SDS011;61501;43.316;5.372;2024-03-02T09:11:08;10.60;;;3.15;;
73276;SDS011;61501;43.316;5.372;2024-03-02T09:13:38;9.32;;;2.95;;
73276;SDS011;61501;43.316;5.372;2024-03-02T09:16:04;11.82;;;3.03;;
73276;SDS011;61501;43.316;5.372;2024-03-02T09:18:30;11.75;;;3.70;;
73276;SDS011;61501;43.316;5.372;2024-03-02T09:20:56;15.32;;;3.78;;
73276;SDS011;61501;43.316;5.372;2024-03-02T09:23:21;14.95;;;3.58;;
73276;SDS011;61501;43.316;5.372;2024-03-02T09:25:47;15.38;;;3.63;;
73276;SDS011;61501;43.316;5.372;2024-03-02T09:28:13;14.65;;;4.07;;
73276;SDS011;61501;43.316;5.372;2024-03-02T09:30:40;14.77;;;4.03;;
73276;SDS011;61501;43.316;5.372;2024-03-02T09:33:06;15.90;;;4.00;;
73276;SDS011;61501;43.316;5.372;2024-03-02T09:35:32;15.32;;;4.05;;
73276;SDS011;61501;43.316;5.372;2024-03-02T09:37:57;10.52;;;3.00;;
73276;SDS011;61501;43.316;5.372;2024-03-02T09:40:23;15.93;;;3.60;;
73276;SDS011;61501;43.316;5.372;2024-03-02T09:42:49;11.95;;;3.60;;
73276;SDS011;61501;43.316;5.372;2024-03-02T09:45:24;9.35;;;3.30;;
73276;SDS011;61501;43.316;5.372;2024-03-02T09:47:50;11.70;;;4.17;;
73276;SDS011;61501;43.316;5.372;2024-03-02T09:50:16;8.52;;;3.38;;
73276;SDS011;61501;43.316;5.372;2024-03-02T09:52:42;13.13;;;3.88;;
73276;SDS011;61501;43.316;5.372;2024-03-02T09:55:08;7.22;;;2.55;;
73276;SDS011;61501;43.316;5.372;2024-03-02T09:57:34;12.38;;;3.50;;
73276;SDS011;61501;43.316;5.372;2024-03-02T10:00:00;13.43;;;3.00;;
73276;SDS011;61501;43.316;5.372;2024-03-02T10:02:25;11.45;;;3.63;;
73276;SDS011;61501;43.316;5.372;2024-03-02T10:04:51;10.18;;;2.90;;
73276;SDS011;61501;43.316;5.372;2024-03-02T10:07:17;10.32;;;3.00;;
73276;SDS011;61501;43.316;5.372;2024-03-02T10:09:44;8.10;;;3.28;;
73276;SDS011;61501;43.316;5.372;2024-03-02T10:12:11;12.80;;;3.72;;
73276;SDS011;61501;43.316;5.372;2024-03-02T10:14:38;12.07;;;2.67;;
73276;SDS011;61501;43.316;5.372;2024-03-02T10:17:06;9.43;;;3.08;;
73276;SDS011;61501;43.316;5.372;2024-03-02T10:19:34;13.18;;;3.22;;
73276;SDS011;61501;43.316;5.372;2024-03-02T10:22:02;10.23;;;3.08;;
73276;SDS011;61501;43.316;5.372;2024-03-02T10:24:43;10.52;;;3.20;;
73276;SDS011;61501;43.316;5.372;2024-03-02T10:27:10;12.93;;;4.10;;
73276;SDS011;61501;43.316;5.372;2024-03-02T10:29:40;11.55;;;3.47;;
73276;SDS011;61501;43.316;5.372;2024-03-02T10:32:09;12.65;;;3.85;;
73276;SDS011;61501;43.316;5.372;2024-03-02T10:34:39;13.52;;;3.60;;
73276;SDS011;61501;43.316;5.372;2024-03-02T10:37:06;12.45;;;3.42;;
73276;SDS011;61501;43.316;5.372;2024-03-02T10:39:35;13.88;;;3.97;;
73276;SDS011;61501;43.316;5.372;2024-03-02T10:42:02;17.50;;;4.00;;
73276;SDS011;61501;43.316;5.372;2024-03-02T10:44:28;11.85;;;3.83;;
73276;SDS011;61501;43.316;5.372;2024-03-02T10:46:55;15.52;;;3.25;;
73276;SDS011;61501;43.316;5.372;2024-03-02T10:49:22;12.55;;;3.67;;
73276;SDS011;61501;43.316;5.372;2024-03-02T10:51:49;11.25;;;3.60;;
73276;SDS011;61501;43.316;5.372;2024-03-02T10:54:15;13.02;;;3.85;;
73276;SDS011;61501;43.316;5.372;2024-03-02T10:56:41;11.40;;;3.55;;
73276;SDS011;61501;43.316;5.372;2024-03-02T10:59:32;11.55;;;3.92;;
73276;SDS011;61501;43.316;5.372;2024-03-02T11:01:59;14.73;;;3.75;;
73276;SDS011;61501;43.316;5.372;2024-03-02T11:04:26;15.52;;;3.75;;
73276;SDS011;61501;43.316;5.372;2024-03-02T11:06:54;13.48;;;4.00;;
73276;SDS011;61501;43.316;5.372;2024-03-02T11:09:29;12.52;;;3.80;;
73276;SDS011;61501;43.316;5.372;2024-03-02T11:12:16;12.40;;;3.55;;
73276;SDS011;61501;43.316;5.372;2024-03-02T11:14:47;9.85;;;3.20;;
73276;SDS011;61501;43.316;5.372;2024-03-02T11:17:17;17.23;;;3.88;;
73276;SDS011;61501;43.316;5.372;2024-03-02T11:19:43;14.82;;;4.15;;
73276;SDS011;61501;43.316;5.372;2024-03-02T11:22:10;14.98;;;4.32;;
73276;SDS011;61501;43.316;5.372;2024-03-02T11:24:37;16.05;;;4.82;;
73276;SDS011;61501;43.316;5.372;2024-03-02T11:27:03;14.13;;;4.00;;
73276;SDS011;61501;43.316;5.372;2024-03-02T11:32:05;13.88;;;4.22;;
73276;SDS011;61501;43.316;5.372;2024-03-02T11:34:39;14.82;;;4.85;;
73276;SDS011;61501;43.316;5.372;2024-03-02T11:37:10;16.75;;;4.50;;
73276;SDS011;61501;43.316;5.372;2024-03-02T11:39:37;15.93;;;4.60;;
73276;SDS011;61501;43.316;5.372;2024-03-02T11:42:05;18.85;;;4.95;;
73276;SDS011;61501;43.316;5.372;2024-03-02T11:44:35;16.70;;;4.72;;
73276;SDS011;61501;43.316;5.372;2024-03-02T11:47:04;13.77;;;4.60;;
73276;SDS011;61501;43.316;5.372;2024-03-02T11:49:39;12.90;;;4.38;;
73276;SDS011;61501;43.316;5.372;2024-03-02T11:52:06;16.98;;;4.57;;
73276;SDS011;61501;43.316;5.372;2024-03-02T11:54:37;11.93;;;3.78;;
73276;SDS011;61501;43.316;5.372;2024-03-02T11:57:11;16.40;;;4.85;;
73276;SDS011;61501;43.316;5.372;2024-03-02T11:59:41;15.52;;;4.70;;
73276;SDS011;61501;43.316;5.372;2024-03-02T12:02:12;14.70;;;4.28;;
73276;SDS011;61501;43.316;5.372;2024-03-02T12:04:41;14.15;;;4.43;;
73276;SDS011;61501;43.316;5.372;2024-03-02T12:07:08;15.43;;;4.05;;
73276;SDS011;61501;43.316;5.372;2024-03-02T12:09:34;10.52;;;3.92;;
73276;SDS011;61501;43.316;5.372;2024-03-02T12:14:33;16.88;;;4.65;;
73276;SDS011;61501;43.316;5.372;2024-03-02T12:17:00;10.90;;;3.55;;
73276;SDS011;61501;43.316;5.372;2024-03-02T12:19:26;12.07;;;4.50;;
73276;SDS011;61501;43.316;5.372;2024-03-02T12:21:54;10.82;;;3.70;;
73276;SDS011;61501;43.316;5.372;2024-03-02T12:24:24;11.52;;;3.58;;
73276;SDS011;61501;43.316;5.372;2024-03-02T12:26:52;14.95;;;4.53;;
73276;SDS011;61501;43.316;5.372;2024-03-02T12:29:19;13.40;;;3.70;;
73276;SDS011;61501;43.316;5.372;2024-03-02T12:31:47;13.55;;;4.47;;
73276;SDS011;61501;43.316;5.372;2024-03-02T12:34:17;12.15;;;4.03;;
73276;SDS011;61501;43.316;5.372;2024-03-02T12:36:44;16.05;;;5.90;;
73276;SDS011;61501;43.316;5.372;2024-03-02T12:39:12;15.20;;;5.32;;
73276;SDS011;61501;43.316;5.372;2024-03-02T12:41:39;16.85;;;5.18;;
73276;SDS011;61501;43.316;5.372;2024-03-02T12:44:05;11.80;;;4.03;;
73276;SDS011;61501;43.316;5.372;2024-03-02T12:46:31;11.25;;;4.30;;
73276;SDS011;61501;43.316;5.372;2024-03-02T12:48:58;13.48;;;4.15;;
73276;SDS011;61501;43.316;5.372;2024-03-02T12:51:29;13.23;;;4.05;;
73276;SDS011;61501;43.316;5.372;2024-03-02T12:53:57;11.45;;;4.40;;
73276;SDS011;61501;43.316;5.372;2024-03-02T12:56:23;10.13;;;3.20;;
73276;SDS011;61501;43.316;5.372;2024-03-02T12:58:59;11.95;;;4.00;;
73276;SDS011;61501;43.316;5.372;2024-03-02T13:01:25;12.23;;;3.60;;
73276;SDS011;61501;43.316;5.372;2024-03-02T13:06:25;11.48;;;3.38;;
73276;SDS011;61501;43.316;5.372;2024-03-02T13:08:54;7.13;;;3.33;;
73276;SDS011;61501;43.316;5.372;2024-03-02T13:11:20;10.10;;;3.67;;
73276;SDS011;61501;43.316;5.372;2024-03-02T13:13:48;11.48;;;3.67;;
73276;SDS011;61501;43.316;5.372;2024-03-02T13:16:14;10.02;;;3.15;;
73276;SDS011;61501;43.316;5.372;2024-03-02T13:18:41;10.95;;;3.58;;
73276;SDS011;61501;43.316;5.372;2024-03-02T13:21:09;8.40;;;3.58;;
73276;SDS011;61501;43.316;5.372;2024-03-02T13:23:34;10.88;;;3.00;;
73276;SDS011;61501;43.316;5.372;2024-03-02T13:26:00;10.70;;;3.67;;
73276;SDS011;61501;43.316;5.372;2024-03-02T13:28:26;7.90;;;2.92;;
73276;SDS011;61501;43.316;5.372;2024-03-02T13:30:52;9.40;;;2.65;;
73276;SDS011;61501;43.316;5.372;2024-03-02T13:33:18;10.40;;;2.72;;
73276;SDS011;61501;43.316;5.372;2024-03-02T13:35:50;9.23;;;3.58;;
73276;SDS011;61501;43.316;5.372;2024-03-02T13:38:19;7.93;;;3.35;;
73276;SDS011;61501;43.316;5.372;2024-03-02T13:40:45;13.02;;;4.80;;
73276;SDS011;61501;43.316;5.372;2024-03-02T13:43:17;9.48;;;3.53;;
73276;SDS011;61501;43.316;5.372;2024-03-02T13:45:46;8.93;;;3.58;;
73276;SDS011;61501;43.316;5.372;2024-03-02T13:48:12;13.45;;;4.57;;
73276;SDS011;61501;43.316;5.372;2024-03-02T13:50:39;15.27;;;3.63;;
73276;SDS011;61501;43.316;5.372;2024-03-02T13:53:05;11.07;;;3.72;;
73276;SDS011;61501;43.316;5.372;2024-03-02T13:55:33;16.35;;;4.70;;
73276;SDS011;61501;43.316;5.372;2024-03-02T13:57:59;17.15;;;5.03;;
73276;SDS011;61501;43.316;5.372;2024-03-02T14:00:24;15.65;;;4.15;;
73276;SDS011;61501;43.316;5.372;2024-03-02T14:02:51;18.30;;;5.38;;
73276;SDS011;61501;43.316;5.372;2024-03-02T14:05:17;18.10;;;4.65;;
73276;SDS011;61501;43.316;5.372;2024-03-02T14:07:44;13.23;;;4.20;;
73276;SDS011;61501;43.316;5.372;2024-03-02T14:10:10;17.58;;;4.25;;
73276;SDS011;61501;43.316;5.372;2024-03-02T14:12:36;21.40;;;5.63;;
73276;SDS011;61501;43.316;5.372;2024-03-02T14:15:02;18.38;;;5.00;;
73276;SDS011;61501;43.316;5.372;2024-03-02T14:17:28;18.02;;;5.75;;
73276;SDS011;61501;43.316;5.372;2024-03-02T14:19:56;18.52;;;5.28;;
73276;SDS011;61501;43.316;5.372;2024-03-02T14:22:23;16.13;;;5.78;;
73276;SDS011;61501;43.316;5.372;2024-03-02T14:24:49;18.98;;;4.57;;
73276;SDS011;61501;43.316;5.372;2024-03-02T14:27:15;19.70;;;5.47;;
73276;SDS011;61501;43.316;5.372;2024-03-02T14:29:42;19.30;;;5.90;;
73276;SDS011;61501;43.316;5.372;2024-03-02T14:32:08;16.48;;;4.53;;
73276;SDS011;61501;43.316;5.372;2024-03-02T14:34:34;15.85;;;5.03;;
73276;SDS011;61501;43.316;5.372;2024-03-02T14:36:59;19.48;;;6.22;;
73276;SDS011;61501;43.316;5.372;2024-03-02T14:39:26;18.35;;;5.18;;
73276;SDS011;61501;43.316;5.372;2024-03-02T14:41:51;14.90;;;4.82;;
73276;SDS011;61501;43.316;5.372;2024-03-02T14:44:17;20.75;;;5.47;;
73276;SDS011;61501;43.316;5.372;2024-03-02T14:46:43;19.30;;;6.47;;
73276;SDS011;61501;43.316;5.372;2024-03-02T14:49:12;17.67;;;5.32;;